createdAt,value
2018-04-12T00:01:33.304Z,20.75
2018-04-12T00:04:04.076Z,26.00
2018-04-12T00:06:34.814Z,28.00
2018-04-12T00:09:06.939Z,25.75
2018-04-12T00:11:43.124Z,25.50
2018-04-12T00:14:14.931Z,23.25
2018-04-12T00:16:47.296Z,26.00
2018-04-12T00:19:18.374Z,28.50
2018-04-12T00:21:49.048Z,27.50
2018-04-12T00:24:19.827Z,39.25
2018-04-12T00:26:50.704Z,36.00
2018-04-12T00:29:22.300Z,38.25
2018-04-12T00:34:35.699Z,41.00
2018-04-12T00:37:06.159Z,48.25
2018-04-12T00:39:37.666Z,57.00
2018-04-12T00:42:08.988Z,57.75
2018-04-12T00:44:39.802Z,53.75
2018-04-12T00:47:10.694Z,60.50
2018-04-12T00:49:40.962Z,61.50
2018-04-12T00:52:11.329Z,61.00
2018-04-12T00:54:42.298Z,67.00
2018-04-12T00:57:12.871Z,56.50
2018-04-12T00:59:43.131Z,68.50
2018-04-12T01:02:14.626Z,62.75
2018-04-12T01:04:45.538Z,63.25
2018-04-12T01:07:15.970Z,72.00
2018-04-12T01:09:47.076Z,71.50
2018-04-12T01:12:17.395Z,72.00
2018-04-12T01:14:47.601Z,72.25
2018-04-12T01:17:18.794Z,70.50
2018-04-12T01:19:49.572Z,72.00
2018-04-12T01:22:28.298Z,74.25
2018-04-12T01:25:01.578Z,78.00
2018-04-12T01:28:21.465Z,72.50
2018-04-12T01:30:52.307Z,76.25
2018-04-12T01:33:22.969Z,75.50
2018-04-12T01:35:53.349Z,76.25
2018-04-12T01:38:23.926Z,75.75
2018-04-12T01:40:54.252Z,81.25
2018-04-12T01:43:32.061Z,77.25
2018-04-12T01:46:03.339Z,79.00
2018-04-12T01:48:34.017Z,76.00
2018-04-12T01:51:05.529Z,78.25
2018-04-12T01:53:35.927Z,85.75
2018-04-12T01:56:11.331Z,86.25
2018-04-12T01:58:41.819Z,84.75
2018-04-12T02:01:12.030Z,85.25
2018-04-12T02:03:42.774Z,84.25
2018-04-12T02:06:13.211Z,89.25
2018-04-12T02:08:43.613Z,86.75
2018-04-12T02:11:14.313Z,90.50
2018-04-12T02:13:44.795Z,84.75
2018-04-12T02:16:15.807Z,87.25
2018-04-12T02:18:47.219Z,89.75
2018-04-12T02:21:17.857Z,84.00
2018-04-12T02:23:48.748Z,84.25
2018-04-12T02:26:19.208Z,90.00
2018-04-12T02:37:08.310Z,93.75
2018-04-12T02:39:38.789Z,93.00
2018-04-12T02:42:09.141Z,95.50
2018-04-12T02:44:40.104Z,94.00
2018-04-12T02:47:13.274Z,92.00
2018-04-12T02:49:49.816Z,96.75
2018-04-12T02:52:21.263Z,90.00
2018-04-12T02:54:52.797Z,90.75
2018-04-12T02:57:24.650Z,97.00
2018-04-12T02:59:54.862Z,97.75
2018-04-12T03:02:26.175Z,92.50
2018-04-12T03:04:57.099Z,100.25
2018-04-12T03:07:27.369Z,92.50
2018-04-12T03:09:59.531Z,94.75
2018-04-12T03:12:30.450Z,93.00
2018-04-12T03:15:03.734Z,96.25
2018-04-12T03:17:34.556Z,94.25
2018-04-12T03:20:07.260Z,87.00
2018-04-12T03:25:11.090Z,95.00
2018-04-12T03:27:41.627Z,101.25
2018-04-12T03:30:15.199Z,97.00
2018-04-12T03:32:46.153Z,90.00
2018-04-12T03:35:16.472Z,92.25
2018-04-12T03:37:46.611Z,96.25
2018-04-12T03:40:17.045Z,93.75
2018-04-12T03:42:47.438Z,91.50
2018-04-12T03:45:18.095Z,95.25
2018-04-12T03:47:49.232Z,93.00
2018-04-12T03:50:20.105Z,98.25
2018-04-12T03:52:50.585Z,98.75
2018-04-12T03:55:21.203Z,89.25
2018-04-12T03:57:51.984Z,94.25
2018-04-12T04:00:22.656Z,96.25
2018-04-12T04:02:53.779Z,92.75
2018-04-12T04:05:24.657Z,94.00
2018-04-12T04:07:55.571Z,93.50
2018-04-12T04:10:25.873Z,92.25
2018-04-12T04:12:56.267Z,91.50
2018-04-12T04:15:38.026Z,96.50
2018-04-12T04:20:27.711Z,89.50
2018-04-12T04:23:02.451Z,90.75
2018-04-12T04:25:34.485Z,95.00
2018-04-12T04:28:04.892Z,95.00
2018-04-12T04:30:35.934Z,96.50
2018-04-12T04:33:06.630Z,94.25
2018-04-12T04:35:37.735Z,91.00
2018-04-12T04:38:08.258Z,90.50
2018-04-12T04:40:38.912Z,89.50
2018-04-12T04:43:09.580Z,97.50
2018-04-12T04:45:40.893Z,94.50
2018-04-12T04:48:14.037Z,92.25
2018-04-12T04:50:44.670Z,93.50
2018-04-12T04:53:15.000Z,93.25
2018-04-12T04:55:45.527Z,93.00
2018-04-12T04:58:15.838Z,86.75
2018-04-12T05:00:47.092Z,90.75
2018-04-12T05:03:18.128Z,85.00
2018-04-12T05:05:48.785Z,91.75
2018-04-12T05:08:19.345Z,87.00
2018-04-12T05:10:51.208Z,84.75
2018-04-12T05:13:24.152Z,81.25
2018-04-12T05:16:00.192Z,90.25
2018-04-12T05:18:41.906Z,90.75
2018-04-12T05:21:17.201Z,82.50
2018-04-12T05:23:47.650Z,83.50
2018-04-12T05:26:17.990Z,87.75
2018-04-12T05:28:48.292Z,84.00
2018-04-12T05:31:18.674Z,86.75
2018-04-12T05:33:49.670Z,87.00
2018-04-12T05:36:20.100Z,85.75
2018-04-12T05:38:50.540Z,85.25
2018-04-12T05:41:23.106Z,79.25
2018-04-12T05:43:53.903Z,82.00
2018-04-12T05:46:27.286Z,85.50
2018-04-12T05:48:58.218Z,83.50
2018-04-12T05:51:29.067Z,87.00
2018-04-12T05:54:00.247Z,78.25
2018-04-12T05:56:41.549Z,78.00
2018-04-12T05:59:13.732Z,82.25
2018-04-12T06:01:46.281Z,85.25
2018-04-12T06:04:16.772Z,83.75
2018-04-12T06:06:47.126Z,79.00
2018-04-12T06:09:17.840Z,84.75
2018-04-12T06:11:48.993Z,74.25
2018-04-12T06:14:19.618Z,78.25
2018-04-12T06:16:50.869Z,80.50
2018-04-12T06:19:21.957Z,83.50
2018-04-12T06:21:53.066Z,80.50
2018-04-12T06:24:24.317Z,78.25
2018-04-12T06:29:43.675Z,77.50
2018-04-12T06:32:14.909Z,81.00
2018-04-12T06:34:51.729Z,81.25
2018-04-12T06:37:23.090Z,86.50
2018-04-12T06:39:54.631Z,77.50
2018-04-12T06:42:35.376Z,79.25
2018-04-12T06:45:08.779Z,79.00
2018-04-12T06:47:46.045Z,78.75
2018-04-12T06:53:01.856Z,80.75
2018-04-12T06:55:34.225Z,79.75
2018-04-12T06:58:05.850Z,84.00
2018-04-12T07:00:36.822Z,77.25
2018-04-12T07:03:07.679Z,86.00
2018-04-12T07:05:39.452Z,78.75
2018-04-12T07:08:11.356Z,85.25
2018-04-12T07:10:42.548Z,80.75
2018-04-12T07:13:21.311Z,81.25
2018-04-12T07:15:53.417Z,82.50
2018-04-12T07:18:33.715Z,80.00
2018-04-12T07:21:26.883Z,83.25
2018-04-12T07:24:00.311Z,83.00
2018-04-12T07:26:32.773Z,84.50
2018-04-12T07:29:07.462Z,82.00
2018-04-12T07:31:40.789Z,78.75
2018-04-12T07:34:11.427Z,76.00
2018-04-12T07:36:49.205Z,72.00
2018-04-12T07:42:35.638Z,77.25
2018-04-12T07:45:07.843Z,77.50
2018-04-12T07:47:41.553Z,80.25
2018-04-12T07:50:12.198Z,79.50
2018-04-12T07:52:43.840Z,76.00
2018-04-12T07:55:14.965Z,80.50
2018-04-12T07:57:46.367Z,81.00
2018-04-12T08:00:25.406Z,80.25
2018-04-12T08:02:57.360Z,80.50
2018-04-12T08:05:28.201Z,82.25
2018-04-12T08:08:00.720Z,80.25
2018-04-12T08:10:35.817Z,84.00
2018-04-12T08:13:06.297Z,82.50
2018-04-12T08:15:41.859Z,76.00
2018-04-12T08:18:15.097Z,78.50
2018-04-12T08:20:47.650Z,80.00
2018-04-12T08:23:19.195Z,84.50
2018-04-12T08:25:50.586Z,84.50
2018-04-12T08:28:20.956Z,79.00
2018-04-12T08:30:51.607Z,75.50
2018-04-12T08:33:22.375Z,76.50
2018-04-12T08:35:54.379Z,86.50
2018-04-12T08:38:25.331Z,78.25
2018-04-12T08:41:04.689Z,81.50
2018-04-12T08:43:48.011Z,84.75
2018-04-12T08:46:18.675Z,83.50
2018-04-12T08:48:49.535Z,86.50
2018-04-12T08:51:20.093Z,85.75
2018-04-12T08:53:53.902Z,83.50
2018-04-12T08:56:27.605Z,85.00
2018-04-12T08:59:00.288Z,84.50
2018-04-12T09:01:33.319Z,82.75
2018-04-12T09:04:04.440Z,83.50
2018-04-12T09:06:35.933Z,84.75
2018-04-12T09:09:07.508Z,91.75
2018-04-12T09:11:38.855Z,88.00
2018-04-12T09:14:09.927Z,84.00
2018-04-12T09:16:42.804Z,84.00
2018-04-12T09:19:13.144Z,85.50
2018-04-12T09:21:44.899Z,87.75
2018-04-12T09:24:16.146Z,82.75
2018-04-12T09:26:46.534Z,85.75
2018-04-12T09:29:22.381Z,84.75
2018-04-12T09:31:53.850Z,84.75
2018-04-12T09:34:28.637Z,78.75
2018-04-12T09:37:01.596Z,83.00
2018-04-12T09:39:37.180Z,84.75
2018-04-12T09:42:08.431Z,81.75
2018-04-12T09:44:40.674Z,80.75
2018-04-12T09:47:13.997Z,77.50
2018-04-12T09:49:48.192Z,77.50
2018-04-12T09:52:30.444Z,82.75
2018-04-12T09:55:02.719Z,77.75
2018-04-12T09:57:38.502Z,77.75
2018-04-12T10:00:10.522Z,78.00
2018-04-12T10:02:48.526Z,74.50
2018-04-12T10:05:22.918Z,76.75
2018-04-12T10:07:56.200Z,82.00
2018-04-12T10:10:37.477Z,75.25
2018-04-12T10:13:17.725Z,75.50
2018-04-12T10:15:57.822Z,79.75
2018-04-12T10:18:33.645Z,73.75
2018-04-12T10:21:04.455Z,73.25
2018-04-12T10:23:45.496Z,72.25
2018-04-12T10:26:15.804Z,72.25
2018-04-12T10:28:49.319Z,71.25
2018-04-12T10:31:20.797Z,73.75
2018-04-12T10:33:53.324Z,72.25
2018-04-12T10:36:26.136Z,71.25
2018-04-12T10:39:03.712Z,69.25
2018-04-12T10:41:44.330Z,70.50
2018-04-12T10:44:15.751Z,72.25
2018-04-12T10:46:49.203Z,69.75
2018-04-12T10:49:20.520Z,70.75
2018-04-12T10:51:54.245Z,70.50
2018-04-12T10:54:39.043Z,69.00
2018-04-12T10:57:18.502Z,72.75
2018-04-12T10:59:51.653Z,73.75
2018-04-12T11:02:38.144Z,72.00
2018-04-12T11:05:11.275Z,71.25
2018-04-12T11:07:48.082Z,64.50
2018-04-12T11:10:21.190Z,69.00
2018-04-12T11:12:52.993Z,69.00
2018-04-12T11:15:26.974Z,73.75
2018-04-12T11:17:57.983Z,68.75
2018-04-12T11:20:28.548Z,69.00
2018-04-12T11:22:59.796Z,68.50
2018-04-12T11:25:31.886Z,65.25
2018-04-12T11:28:03.224Z,66.75
2018-04-12T11:30:35.933Z,67.00
2018-04-12T11:33:08.298Z,66.75
2018-04-12T11:35:40.368Z,66.25
2018-04-12T11:38:12.545Z,63.75
2018-04-12T11:40:44.858Z,61.75
2018-04-12T11:43:17.470Z,63.75
2018-04-12T11:45:49.477Z,63.00
2018-04-12T11:48:21.379Z,64.75
2018-04-12T11:50:58.942Z,60.50
2018-04-12T11:53:33.421Z,65.50
2018-04-12T11:56:07.718Z,61.25
2018-04-12T11:58:42.510Z,61.25
2018-04-12T12:01:17.624Z,61.75
2018-04-12T12:03:54.653Z,60.00
2018-04-12T12:06:26.781Z,60.75
2018-04-12T12:09:13.649Z,61.25
2018-04-12T12:11:54.958Z,63.25
2018-04-12T12:14:27.311Z,62.50
2018-04-12T12:16:58.619Z,58.50
2018-04-12T12:19:29.610Z,60.75
2018-04-12T12:22:00.370Z,62.75
2018-04-12T12:24:31.833Z,60.00
2018-04-12T12:27:04.337Z,59.25
2018-04-12T12:29:40.509Z,61.00
2018-04-12T12:32:12.333Z,61.00
2018-04-12T12:34:44.810Z,63.00
2018-04-12T12:37:18.326Z,60.00
2018-04-12T12:39:54.096Z,61.50
2018-04-12T12:42:27.634Z,61.75
2018-04-12T12:45:08.061Z,61.25
2018-04-12T12:47:46.114Z,61.00
2018-04-12T12:50:20.530Z,59.00
2018-04-12T12:52:52.028Z,61.00
2018-04-12T12:55:24.144Z,65.50
2018-04-12T12:57:55.732Z,56.75
2018-04-12T13:00:30.497Z,57.75
2018-04-12T13:03:01.714Z,58.25
2018-04-12T13:05:33.657Z,59.00
2018-04-12T13:08:04.940Z,56.50
2018-04-12T13:13:17.482Z,60.00
2018-04-12T13:15:48.454Z,55.00
2018-04-12T13:20:53.268Z,58.50
2018-04-12T13:23:23.676Z,61.25
2018-04-12T13:25:54.883Z,58.00
2018-04-12T13:28:26.110Z,57.25
2018-04-12T13:30:56.971Z,59.00
2018-04-12T13:33:35.883Z,54.00
2018-04-12T13:36:08.722Z,55.00
2018-04-12T13:38:39.723Z,58.75
2018-04-12T13:41:10.915Z,55.00
2018-04-12T13:43:42.245Z,57.00
2018-04-12T13:46:12.947Z,57.25
2018-04-12T13:48:47.209Z,59.50
2018-04-12T13:51:21.147Z,59.50
2018-04-12T13:53:54.604Z,55.75
2018-04-12T13:56:26.790Z,55.25
2018-04-12T13:59:05.410Z,58.00
2018-04-12T14:01:37.790Z,54.75
2018-04-12T14:04:19.005Z,52.75
2018-04-12T14:07:10.370Z,53.50
2018-04-12T14:09:42.150Z,53.25
2018-04-12T14:12:13.424Z,51.75
2018-04-12T14:14:44.625Z,53.00
2018-04-12T14:17:15.733Z,51.00
2018-04-12T14:19:46.096Z,48.00
2018-04-12T14:22:16.404Z,50.00
2018-04-12T14:24:47.046Z,45.50
2018-04-12T14:27:19.129Z,48.50
2018-04-12T14:29:50.295Z,49.75
2018-04-12T14:32:22.093Z,48.75
2018-04-12T14:34:52.644Z,47.00
2018-04-12T14:39:50.799Z,47.75
2018-04-12T14:42:23.294Z,48.50
2018-04-12T14:44:55.829Z,49.25
2018-04-12T14:47:26.856Z,50.00
2018-04-12T14:49:58.850Z,44.50
2018-04-12T14:52:30.832Z,44.75
2018-04-12T14:55:19.156Z,47.75
2018-04-12T14:57:49.895Z,41.75
2018-04-12T15:00:23.094Z,46.25
2018-04-12T15:02:55.952Z,47.25
2018-04-12T15:05:29.613Z,44.75
2018-04-12T15:08:05.854Z,36.25
2018-04-12T15:10:37.930Z,36.75
2018-04-12T15:13:15.614Z,44.50
2018-04-12T15:15:48.770Z,42.00
2018-04-12T15:18:22.089Z,41.00
2018-04-12T15:20:53.243Z,43.50
2018-04-12T15:23:32.165Z,45.00
2018-04-12T15:26:11.050Z,43.50
2018-04-12T15:28:45.053Z,45.00
2018-04-12T15:31:19.903Z,43.25
2018-04-12T15:33:53.608Z,39.25
2018-04-12T15:36:32.700Z,43.75
2018-04-12T15:39:06.697Z,44.75
2018-04-12T15:41:41.463Z,42.25
2018-04-12T15:44:26.119Z,43.00
2018-04-12T15:47:01.046Z,42.75
2018-04-12T15:49:33.296Z,41.00
2018-04-12T15:52:07.262Z,44.25
2018-04-12T15:54:38.391Z,44.25
2018-04-12T15:57:13.562Z,41.50
2018-04-12T15:59:49.388Z,39.00
2018-04-12T16:02:24.182Z,46.00
2018-04-12T16:05:10.286Z,42.00
2018-04-12T16:07:42.478Z,43.75
2018-04-12T16:10:13.674Z,41.75
2018-04-12T16:12:45.711Z,43.75
2018-04-12T16:15:20.058Z,43.50
2018-04-12T16:17:57.000Z,44.00
2018-04-12T16:20:40.194Z,43.25
2018-04-12T16:23:12.606Z,45.00
2018-04-12T16:25:46.302Z,35.25
2018-04-12T16:28:48.543Z,39.25
2018-04-12T16:31:21.054Z,40.75
2018-04-12T16:33:55.768Z,40.00
2018-04-12T16:36:33.905Z,40.25
2018-04-12T16:39:05.320Z,40.00
2018-04-12T16:41:37.892Z,43.25
2018-04-12T16:50:02.739Z,35.25
2018-04-12T16:52:33.119Z,32.25
2018-04-12T16:55:05.303Z,37.25
2018-04-12T16:57:35.640Z,38.00
2018-04-12T17:00:11.990Z,25.50
2018-04-12T17:02:54.568Z,36.00
2018-04-12T17:05:25.573Z,39.75
2018-04-12T17:08:06.016Z,34.25
2018-04-12T17:10:47.402Z,37.75
2018-04-12T17:13:20.331Z,33.75
2018-04-12T17:15:51.742Z,32.00
2018-04-12T17:18:24.840Z,36.00
2018-04-12T17:20:56.637Z,34.00
2018-04-12T17:23:28.393Z,34.00
2018-04-12T17:25:59.328Z,36.75
2018-04-12T17:28:30.856Z,29.50
2018-04-12T17:31:05.306Z,34.00
2018-04-12T17:33:39.083Z,32.50
2018-04-12T17:36:22.961Z,32.75
2018-04-12T17:38:56.161Z,29.00
2018-04-12T17:41:28.149Z,28.75
2018-04-12T17:43:58.704Z,28.75
2018-04-12T17:46:30.646Z,29.50
2018-04-12T17:49:01.375Z,29.25
2018-04-12T17:51:37.384Z,32.00
2018-04-12T17:54:08.099Z,28.00
2018-04-12T17:56:42.389Z,33.00
2018-04-12T17:59:17.748Z,29.25
2018-04-12T18:01:52.964Z,32.50
2018-04-12T18:04:25.386Z,25.25
2018-04-12T18:06:56.802Z,37.00
2018-04-12T18:09:50.664Z,39.50
2018-04-12T18:12:47.702Z,45.75
2018-04-12T18:15:19.294Z,47.00
2018-04-12T18:17:55.109Z,47.50
2018-04-12T18:20:27.617Z,43.75
2018-04-12T18:22:59.588Z,48.00
2018-04-12T18:25:34.190Z,47.50
2018-04-12T18:28:06.468Z,49.00
2018-04-12T18:30:37.341Z,46.00
2018-04-12T18:33:17.367Z,52.00
2018-04-12T18:35:49.108Z,44.00
2018-04-12T18:38:21.811Z,42.25
2018-04-12T18:40:52.442Z,38.00
2018-04-12T18:43:27.703Z,41.25
2018-04-12T18:45:59.456Z,38.75
2018-04-12T18:48:38.965Z,36.50
2018-04-12T18:51:13.551Z,37.50
2018-04-12T18:53:46.060Z,46.50
2018-04-12T18:56:16.566Z,36.00
2018-04-12T18:58:55.494Z,41.75
2018-04-12T19:01:38.495Z,38.75
2018-04-12T19:04:09.997Z,39.25
2018-04-12T19:06:41.679Z,38.25
2018-04-12T19:09:18.009Z,44.25
2018-04-12T19:11:48.861Z,32.75
2018-04-12T19:14:20.401Z,44.75
2018-04-12T19:16:52.148Z,40.50
2018-04-12T19:19:23.900Z,42.25
2018-04-12T19:21:59.028Z,47.00
2018-04-12T19:24:31.243Z,43.50
2018-04-12T19:27:01.904Z,46.50
2018-04-12T19:29:35.246Z,39.75
2018-04-12T19:32:12.997Z,41.25
2018-04-12T19:34:43.442Z,45.25
2018-04-12T19:37:13.609Z,44.25
2018-04-12T19:39:44.139Z,44.75
2018-04-12T19:42:14.570Z,44.50
2018-04-12T19:44:45.350Z,49.25
2018-04-12T19:47:16.464Z,50.50
2018-04-12T19:49:47.007Z,45.25
2018-04-12T19:52:17.566Z,50.75
2018-04-12T19:54:47.823Z,40.25
2018-04-12T19:57:18.325Z,40.25
2018-04-12T19:59:49.084Z,43.75
2018-04-12T20:02:21.858Z,39.50
2018-04-12T20:04:52.163Z,45.25
2018-04-12T20:10:02.397Z,44.50
2018-04-12T20:12:35.036Z,41.50
2018-04-12T20:15:08.404Z,44.75
2018-04-12T20:17:38.622Z,45.75
2018-04-12T20:20:09.673Z,43.00
2018-04-12T20:22:40.100Z,45.00
2018-04-12T20:25:10.793Z,46.75
2018-04-12T20:27:41.159Z,43.25
2018-04-12T20:30:14.337Z,50.00
2018-04-12T20:32:44.955Z,45.75
2018-04-12T20:35:19.874Z,41.25
2018-04-12T20:37:50.492Z,43.25
2018-04-12T20:40:20.795Z,47.25
2018-04-12T20:42:51.158Z,46.25
2018-04-12T20:45:22.011Z,48.00
2018-04-12T20:47:53.526Z,50.75
2018-04-12T20:50:25.273Z,48.50
2018-04-12T20:52:55.937Z,48.00
2018-04-12T20:55:28.407Z,50.25
2018-04-12T20:57:58.765Z,48.75
2018-04-12T21:00:38.761Z,51.50
2018-04-12T21:03:10.063Z,47.75
2018-04-12T21:05:40.305Z,54.75
2018-04-12T21:08:12.058Z,54.75
2018-04-12T21:10:45.911Z,52.25
2018-04-12T21:13:22.741Z,54.75
2018-04-12T21:15:54.160Z,54.75
2018-04-12T21:18:24.764Z,49.00
2018-04-12T21:20:55.229Z,50.25
2018-04-12T21:23:25.599Z,51.75
2018-04-12T21:25:56.866Z,49.00
2018-04-12T21:28:27.329Z,46.50
2018-04-12T21:30:59.306Z,50.00
2018-04-12T21:33:29.701Z,51.00
2018-04-12T21:36:00.228Z,55.50
2018-04-12T21:38:31.041Z,55.75
2018-04-12T21:41:03.644Z,50.50
2018-04-12T21:43:39.165Z,51.00
2018-04-12T21:46:10.602Z,51.50
2018-04-12T21:48:42.186Z,54.50
2018-04-12T21:51:13.297Z,51.75
2018-04-12T21:53:44.115Z,52.00
2018-04-12T21:56:15.968Z,53.00
2018-04-12T21:58:46.589Z,46.50
2018-04-12T22:01:17.589Z,51.50
2018-04-12T22:03:48.003Z,48.00
2018-04-12T22:06:19.169Z,49.75
2018-04-12T22:08:49.484Z,53.50
2018-04-12T22:11:20.347Z,54.25
2018-04-12T22:13:50.637Z,57.00
2018-04-12T22:16:21.791Z,52.25
2018-04-12T22:18:52.232Z,56.50
2018-04-12T22:21:22.773Z,54.50
2018-04-12T22:23:53.264Z,55.00
2018-04-12T22:26:23.748Z,55.75
2018-04-12T22:28:54.489Z,59.50
2018-04-12T22:31:27.485Z,54.75
2018-04-12T22:33:58.163Z,55.50
2018-04-12T22:36:28.738Z,52.75
2018-04-12T22:39:04.613Z,50.50
2018-04-12T22:45:08.735Z,55.00
2018-04-12T22:47:39.082Z,49.25
2018-04-12T22:50:09.687Z,53.75
2018-04-12T22:52:39.919Z,50.50
2018-04-12T22:55:10.763Z,55.50
2018-04-12T22:57:41.382Z,52.00
2018-04-12T23:00:16.012Z,58.25
2018-04-12T23:03:12.211Z,58.50
2018-04-12T23:05:43.356Z,54.25
2018-04-12T23:08:13.717Z,51.50
2018-04-12T23:10:44.465Z,55.75
2018-04-12T23:13:14.606Z,55.75
2018-04-12T23:15:45.143Z,54.00
2018-04-12T23:18:22.835Z,56.25
2018-04-12T23:20:53.247Z,55.00
2018-04-12T23:23:25.026Z,56.00
2018-04-12T23:25:55.461Z,51.25
2018-04-12T23:31:30.263Z,54.25
2018-04-12T23:34:01.291Z,57.75
2018-04-12T23:36:32.159Z,52.75
2018-04-12T23:39:02.664Z,51.25
2018-04-12T23:41:33.372Z,53.00
2018-04-12T23:47:26.408Z,44.75
2018-04-12T23:49:56.606Z,53.00
2018-04-12T23:52:27.534Z,48.75
2018-04-12T23:54:58.004Z,55.25
2018-04-12T23:57:29.037Z,60.25
2018-04-12T23:59:59.633Z,54.75
